sensor_id;sensor_type;location;lat;lon;timestamp;temperature;humidity
2999;DHT22;1509;51.964;7.628;2024-01-25T00:00:57;8.80;99.90
2999;DHT22;1509;51.964;7.628;2024-01-25T00:03:23;8.80;99.90
2999;DHT22;1509;51.964;7.628;2024-01-25T00:05:48;8.60;99.90
2999;DHT22;1509;51.964;7.628;2024-01-25T00:08:14;8.50;99.90
2999;DHT22;1509;51.964;7.628;2024-01-25T00:10:40;8.60;99.90
2999;DHT22;1509;51.964;7.628;2024-01-25T00:13:05;8.60;99.90
2999;DHT22;1509;51.964;7.628;2024-01-25T00:15:31;8.60;99.90
2999;DHT22;1509;51.964;7.628;2024-01-25T00:17:56;8.60;99.90
2999;DHT22;1509;51.964;7.628;2024-01-25T00:20:22;8.60;99.90
2999;DHT22;1509;51.964;7.628;2024-01-25T00:22:48;8.60;99.90
2999;DHT22;1509;51.964;7.628;2024-01-25T00:25:13;8.60;99.90
2999;DHT22;1509;51.964;7.628;2024-01-25T00:27:39;8.60;99.90
2999;DHT22;1509;51.964;7.628;2024-01-25T00:30:08;8.70;99.90
2999;DHT22;1509;51.964;7.628;2024-01-25T00:32:34;8.50;99.90
2999;DHT22;1509;51.964;7.628;2024-01-25T00:35:00;8.50;99.90
2999;DHT22;1509;51.964;7.628;2024-01-25T00:37:25;8.50;99.90
2999;DHT22;1509;51.964;7.628;2024-01-25T00:39:51;8.40;99.90
2999;DHT22;1509;51.964;7.628;2024-01-25T00:42:20;8.40;99.90
2999;DHT22;1509;51.964;7.628;2024-01-25T00:44:47;8.40;99.90
2999;DHT22;1509;51.964;7.628;2024-01-25T00:47:12;8.40;99.90
2999;DHT22;1509;51.964;7.628;2024-01-25T00:49:38;8.30;99.90
2999;DHT22;1509;51.964;7.628;2024-01-25T00:52:04;8.30;99.90
2999;DHT22;1509;51.964;7.628;2024-01-25T00:54:30;8.30;99.90
2999;DHT22;1509;51.964;7.628;2024-01-25T00:56:56;8.20;99.90
2999;DHT22;1509;51.964;7.628;2024-01-25T00:59:22;8.20;99.90
2999;DHT22;1509;51.964;7.628;2024-01-25T01:01:48;8.30;99.90
2999;DHT22;1509;51.964;7.628;2024-01-25T01:04:15;8.30;99.90
2999;DHT22;1509;51.964;7.628;2024-01-25T01:06:40;8.30;99.90
2999;DHT22;1509;51.964;7.628;2024-01-25T01:09:06;8.20;99.90
2999;DHT22;1509;51.964;7.628;2024-01-25T01:11:33;8.30;99.90
2999;DHT22;1509;51.964;7.628;2024-01-25T01:13:58;8.30;99.90
2999;DHT22;1509;51.964;7.628;2024-01-25T01:16:24;8.20;99.90
2999;DHT22;1509;51.964;7.628;2024-01-25T01:18:49;8.30;99.90
2999;DHT22;1509;51.964;7.628;2024-01-25T01:21:15;8.20;99.90
2999;DHT22;1509;51.964;7.628;2024-01-25T01:23:40;8.20;99.90
2999;DHT22;1509;51.964;7.628;2024-01-25T01:26:07;8.20;99.90
2999;DHT22;1509;51.964;7.628;2024-01-25T01:28:32;8.20;99.90
2999;DHT22;1509;51.964;7.628;2024-01-25T01:30:58;8.10;99.90
2999;DHT22;1509;51.964;7.628;2024-01-25T01:33:23;8.10;99.90
2999;DHT22;1509;51.964;7.628;2024-01-25T01:35:49;8.10;99.90
2999;DHT22;1509;51.964;7.628;2024-01-25T01:38:15;8.00;99.90
2999;DHT22;1509;51.964;7.628;2024-01-25T01:40:40;8.00;99.90
2999;DHT22;1509;51.964;7.628;2024-01-25T01:43:06;8.00;99.90
2999;DHT22;1509;51.964;7.628;2024-01-25T01:45:31;8.00;99.90
2999;DHT22;1509;51.964;7.628;2024-01-25T01:47:58;8.00;99.90
2999;DHT22;1509;51.964;7.628;2024-01-25T01:50:24;8.00;99.90
2999;DHT22;1509;51.964;7.628;2024-01-25T01:52:50;8.00;99.90
2999;DHT22;1509;51.964;7.628;2024-01-25T01:55:17;8.00;99.90
2999;DHT22;1509;51.964;7.628;2024-01-25T01:57:45;8.00;99.90
2999;DHT22;1509;51.964;7.628;2024-01-25T02:00:14;7.90;99.90
2999;DHT22;1509;51.964;7.628;2024-01-25T02:02:41;7.90;99.90
2999;DHT22;1509;51.964;7.628;2024-01-25T02:05:07;7.80;99.90
2999;DHT22;1509;51.964;7.628;2024-01-25T02:07:33;7.80;99.90
2999;DHT22;1509;51.964;7.628;2024-01-25T02:09:58;7.80;99.90
2999;DHT22;1509;51.964;7.628;2024-01-25T02:12:24;8.00;99.90
2999;DHT22;1509;51.964;7.628;2024-01-25T02:14:50;7.70;99.90
2999;DHT22;1509;51.964;7.628;2024-01-25T02:17:15;7.70;99.90
2999;DHT22;1509;51.964;7.628;2024-01-25T02:19:41;7.70;99.90
2999;DHT22;1509;51.964;7.628;2024-01-25T02:22:06;7.60;99.90
2999;DHT22;1509;51.964;7.628;2024-01-25T02:24:32;7.60;99.90
2999;DHT22;1509;51.964;7.628;2024-01-25T02:26:58;7.60;99.90
2999;DHT22;1509;51.964;7.628;2024-01-25T02:29:23;7.60;99.90
2999;DHT22;1509;51.964;7.628;2024-01-25T02:31:49;7.50;99.90
2999;DHT22;1509;51.964;7.628;2024-01-25T02:34:15;7.50;99.90
2999;DHT22;1509;51.964;7.628;2024-01-25T02:36:40;7.50;99.90
2999;DHT22;1509;51.964;7.628;2024-01-25T02:39:06;7.40;99.90
2999;DHT22;1509;51.964;7.628;2024-01-25T02:41:32;7.50;99.90
2999;DHT22;1509;51.964;7.628;2024-01-25T02:43:58;7.40;99.90
2999;DHT22;1509;51.964;7.628;2024-01-25T02:46:26;7.40;99.90
2999;DHT22;1509;51.964;7.628;2024-01-25T02:48:52;7.50;99.90
2999;DHT22;1509;51.964;7.628;2024-01-25T02:51:18;7.40;99.90
2999;DHT22;1509;51.964;7.628;2024-01-25T02:53:43;7.40;99.90
2999;DHT22;1509;51.964;7.628;2024-01-25T02:56:09;7.20;99.90
2999;DHT22;1509;51.964;7.628;2024-01-25T02:58:34;7.30;99.90
2999;DHT22;1509;51.964;7.628;2024-01-25T03:01:00;7.30;99.90
2999;DHT22;1509;51.964;7.628;2024-01-25T03:03:25;7.20;99.90
2999;DHT22;1509;51.964;7.628;2024-01-25T03:05:51;7.20;99.90
2999;DHT22;1509;51.964;7.628;2024-01-25T03:08:17;7.20;99.90
2999;DHT22;1509;51.964;7.628;2024-01-25T03:10:43;7.20;99.90
2999;DHT22;1509;51.964;7.628;2024-01-25T03:13:08;7.10;99.90
2999;DHT22;1509;51.964;7.628;2024-01-25T03:15:34;7.00;99.90
2999;DHT22;1509;51.964;7.628;2024-01-25T03:18:00;7.20;99.90
2999;DHT22;1509;51.964;7.628;2024-01-25T03:20:25;7.10;99.90
2999;DHT22;1509;51.964;7.628;2024-01-25T03:22:51;7.10;99.90
2999;DHT22;1509;51.964;7.628;2024-01-25T03:25:17;7.10;99.90
2999;DHT22;1509;51.964;7.628;2024-01-25T03:27:42;6.90;99.90
2999;DHT22;1509;51.964;7.628;2024-01-25T03:30:08;7.30;99.90
2999;DHT22;1509;51.964;7.628;2024-01-25T03:32:34;7.00;99.90
2999;DHT22;1509;51.964;7.628;2024-01-25T03:35:00;7.00;99.90
2999;DHT22;1509;51.964;7.628;2024-01-25T03:37:25;7.00;99.90
2999;DHT22;1509;51.964;7.628;2024-01-25T03:39:51;6.90;99.90
2999;DHT22;1509;51.964;7.628;2024-01-25T03:42:17;6.90;99.90
2999;DHT22;1509;51.964;7.628;2024-01-25T03:44:42;6.90;99.90
2999;DHT22;1509;51.964;7.628;2024-01-25T03:47:10;6.90;99.90
2999;DHT22;1509;51.964;7.628;2024-01-25T03:49:36;6.80;99.90
2999;DHT22;1509;51.964;7.628;2024-01-25T03:52:03;6.80;99.90
2999;DHT22;1509;51.964;7.628;2024-01-25T03:54:28;6.80;99.90
2999;DHT22;1509;51.964;7.628;2024-01-25T03:56:54;6.80;99.90
2999;DHT22;1509;51.964;7.628;2024-01-25T03:59:19;6.70;99.90
2999;DHT22;1509;51.964;7.628;2024-01-25T04:01:45;6.70;99.90
2999;DHT22;1509;51.964;7.628;2024-01-25T04:04:13;6.70;99.90
2999;DHT22;1509;51.964;7.628;2024-01-25T04:06:41;6.70;99.90
2999;DHT22;1509;51.964;7.628;2024-01-25T04:09:08;6.70;99.90
2999;DHT22;1509;51.964;7.628;2024-01-25T04:11:34;6.60;99.90
2999;DHT22;1509;51.964;7.628;2024-01-25T04:14:00;6.60;99.90
2999;DHT22;1509;51.964;7.628;2024-01-25T04:16:26;6.60;99.90
2999;DHT22;1509;51.964;7.628;2024-01-25T04:18:54;6.60;99.90
2999;DHT22;1509;51.964;7.628;2024-01-25T04:21:20;6.60;99.90
2999;DHT22;1509;51.964;7.628;2024-01-25T04:23:46;6.50;99.90
2999;DHT22;1509;51.964;7.628;2024-01-25T04:26:11;6.50;99.90
2999;DHT22;1509;51.964;7.628;2024-01-25T04:28:37;6.50;99.90
2999;DHT22;1509;51.964;7.628;2024-01-25T04:31:03;6.70;99.90
2999;DHT22;1509;51.964;7.628;2024-01-25T04:33:29;6.50;99.90
2999;DHT22;1509;51.964;7.628;2024-01-25T04:35:55;6.50;99.90
2999;DHT22;1509;51.964;7.628;2024-01-25T04:38:21;6.50;99.90
2999;DHT22;1509;51.964;7.628;2024-01-25T04:40:47;6.40;99.90
2999;DHT22;1509;51.964;7.628;2024-01-25T04:43:12;6.40;99.90
2999;DHT22;1509;51.964;7.628;2024-01-25T04:45:39;6.50;99.90
2999;DHT22;1509;51.964;7.628;2024-01-25T04:48:07;6.40;99.90
2999;DHT22;1509;51.964;7.628;2024-01-25T04:50:33;6.40;99.90
2999;DHT22;1509;51.964;7.628;2024-01-25T04:53:01;6.40;99.90
2999;DHT22;1509;51.964;7.628;2024-01-25T04:55:26;6.40;99.90
2999;DHT22;1509;51.964;7.628;2024-01-25T04:57:52;6.30;99.90
2999;DHT22;1509;51.964;7.628;2024-01-25T05:00:20;6.30;99.90
2999;DHT22;1509;51.964;7.628;2024-01-25T05:02:47;6.30;99.90
2999;DHT22;1509;51.964;7.628;2024-01-25T05:05:12;6.40;99.90
2999;DHT22;1509;51.964;7.628;2024-01-25T05:07:38;6.30;99.90
2999;DHT22;1509;51.964;7.628;2024-01-25T05:10:04;6.10;99.90
2999;DHT22;1509;51.964;7.628;2024-01-25T05:12:30;6.20;99.90
2999;DHT22;1509;51.964;7.628;2024-01-25T05:14:56;6.40;99.90
2999;DHT22;1509;51.964;7.628;2024-01-25T05:17:21;6.10;99.90
2999;DHT22;1509;51.964;7.628;2024-01-25T05:19:47;6.10;99.90
2999;DHT22;1509;51.964;7.628;2024-01-25T05:22:12;6.00;99.90
2999;DHT22;1509;51.964;7.628;2024-01-25T05:24:38;6.00;99.90
2999;DHT22;1509;51.964;7.628;2024-01-25T05:27:04;6.00;99.90
2999;DHT22;1509;51.964;7.628;2024-01-25T05:29:29;5.90;99.90
2999;DHT22;1509;51.964;7.628;2024-01-25T05:31:55;6.20;99.90
2999;DHT22;1509;51.964;7.628;2024-01-25T05:34:21;5.90;99.90
2999;DHT22;1509;51.964;7.628;2024-01-25T05:36:46;5.80;99.90
2999;DHT22;1509;51.964;7.628;2024-01-25T05:39:13;5.70;99.90
2999;DHT22;1509;51.964;7.628;2024-01-25T05:41:38;5.70;99.90
2999;DHT22;1509;51.964;7.628;2024-01-25T05:44:05;5.70;99.90
2999;DHT22;1509;51.964;7.628;2024-01-25T05:46:30;5.60;99.90
2999;DHT22;1509;51.964;7.628;2024-01-25T05:48:56;5.60;99.90
2999;DHT22;1509;51.964;7.628;2024-01-25T05:51:21;5.60;99.90
2999;DHT22;1509;51.964;7.628;2024-01-25T05:53:47;5.50;99.90
2999;DHT22;1509;51.964;7.628;2024-01-25T05:56:12;5.50;99.90
2999;DHT22;1509;51.964;7.628;2024-01-25T05:58:38;5.50;99.90
2999;DHT22;1509;51.964;7.628;2024-01-25T06:01:04;5.40;99.90
2999;DHT22;1509;51.964;7.628;2024-01-25T06:03:30;5.40;99.90
2999;DHT22;1509;51.964;7.628;2024-01-25T06:05:55;5.40;99.90
2999;DHT22;1509;51.964;7.628;2024-01-25T06:08:21;5.30;99.90
2999;DHT22;1509;51.964;7.628;2024-01-25T06:10:47;5.30;99.90
2999;DHT22;1509;51.964;7.628;2024-01-25T06:13:12;5.10;99.90
2999;DHT22;1509;51.964;7.628;2024-01-25T06:15:38;5.30;99.90
2999;DHT22;1509;51.964;7.628;2024-01-25T06:18:04;5.30;99.90
2999;DHT22;1509;51.964;7.628;2024-01-25T06:20:30;5.30;99.90
2999;DHT22;1509;51.964;7.628;2024-01-25T06:22:55;5.10;99.90
2999;DHT22;1509;51.964;7.628;2024-01-25T06:25:21;5.50;99.90
2999;DHT22;1509;51.964;7.628;2024-01-25T06:27:47;5.30;99.90
2999;DHT22;1509;51.964;7.628;2024-01-25T06:30:14;5.30;99.90
2999;DHT22;1509;51.964;7.628;2024-01-25T06:32:40;5.20;99.90
2999;DHT22;1509;51.964;7.628;2024-01-25T06:35:06;5.20;99.90
2999;DHT22;1509;51.964;7.628;2024-01-25T06:37:31;5.10;99.90
2999;DHT22;1509;51.964;7.628;2024-01-25T06:39:57;5.10;99.90
2999;DHT22;1509;51.964;7.628;2024-01-25T06:42:24;5.10;99.90
2999;DHT22;1509;51.964;7.628;2024-01-25T06:44:49;5.10;99.90
2999;DHT22;1509;51.964;7.628;2024-01-25T06:47:18;5.10;99.90
2999;DHT22;1509;51.964;7.628;2024-01-25T06:49:43;5.10;99.90
2999;DHT22;1509;51.964;7.628;2024-01-25T06:52:13;5.10;99.90
2999;DHT22;1509;51.964;7.628;2024-01-25T06:54:38;5.40;99.90
2999;DHT22;1509;51.964;7.628;2024-01-25T06:57:04;5.10;99.90
2999;DHT22;1509;51.964;7.628;2024-01-25T06:59:30;5.00;99.90
2999;DHT22;1509;51.964;7.628;2024-01-25T07:01:55;5.00;99.90
2999;DHT22;1509;51.964;7.628;2024-01-25T07:04:21;5.00;99.90
2999;DHT22;1509;51.964;7.628;2024-01-25T07:06:50;4.90;99.90
2999;DHT22;1509;51.964;7.628;2024-01-25T07:09:18;4.90;99.90
2999;DHT22;1509;51.964;7.628;2024-01-25T07:11:44;4.90;99.90
2999;DHT22;1509;51.964;7.628;2024-01-25T07:14:10;4.90;99.90
2999;DHT22;1509;51.964;7.628;2024-01-25T07:16:36;4.90;99.90
2999;DHT22;1509;51.964;7.628;2024-01-25T07:19:02;4.90;99.90
2999;DHT22;1509;51.964;7.628;2024-01-25T07:21:35;4.90;99.90
2999;DHT22;1509;51.964;7.628;2024-01-25T07:24:02;4.80;99.90
2999;DHT22;1509;51.964;7.628;2024-01-25T07:26:29;4.80;99.90
2999;DHT22;1509;51.964;7.628;2024-01-25T07:28:55;4.80;99.90
2999;DHT22;1509;51.964;7.628;2024-01-25T07:31:27;5.00;99.90
2999;DHT22;1509;51.964;7.628;2024-01-25T07:33:53;4.80;99.90
2999;DHT22;1509;51.964;7.628;2024-01-25T07:36:20;4.70;99.90
2999;DHT22;1509;51.964;7.628;2024-01-25T07:38:46;4.80;99.90
2999;DHT22;1509;51.964;7.628;2024-01-25T07:41:17;4.80;99.90
2999;DHT22;1509;51.964;7.628;2024-01-25T07:43:43;5.10;99.90
2999;DHT22;1509;51.964;7.628;2024-01-25T07:46:09;5.10;99.90
2999;DHT22;1509;51.964;7.628;2024-01-25T07:48:35;4.80;99.90
2999;DHT22;1509;51.964;7.628;2024-01-25T07:51:00;4.90;99.90
2999;DHT22;1509;51.964;7.628;2024-01-25T07:53:27;4.90;99.90
2999;DHT22;1509;51.964;7.628;2024-01-25T07:55:52;4.90;99.90
2999;DHT22;1509;51.964;7.628;2024-01-25T07:58:18;5.00;99.90
2999;DHT22;1509;51.964;7.628;2024-01-25T08:00:43;5.00;99.90
2999;DHT22;1509;51.964;7.628;2024-01-25T08:03:11;5.00;99.90
2999;DHT22;1509;51.964;7.628;2024-01-25T08:05:36;5.00;99.90
2999;DHT22;1509;51.964;7.628;2024-01-25T08:08:02;5.00;99.90
2999;DHT22;1509;51.964;7.628;2024-01-25T08:10:27;5.10;99.90
2999;DHT22;1509;51.964;7.628;2024-01-25T08:12:53;5.10;99.90
2999;DHT22;1509;51.964;7.628;2024-01-25T08:15:19;5.00;99.90
2999;DHT22;1509;51.964;7.628;2024-01-25T08:17:45;5.20;99.90
2999;DHT22;1509;51.964;7.628;2024-01-25T08:20:11;5.20;99.90
2999;DHT22;1509;51.964;7.628;2024-01-25T08:22:40;5.20;99.90
2999;DHT22;1509;51.964;7.628;2024-01-25T08:25:06;5.30;99.90
2999;DHT22;1509;51.964;7.628;2024-01-25T08:27:32;5.40;99.90
2999;DHT22;1509;51.964;7.628;2024-01-25T08:29:57;5.50;99.90
2999;DHT22;1509;51.964;7.628;2024-01-25T08:32:23;5.50;99.90
2999;DHT22;1509;51.964;7.628;2024-01-25T08:34:51;5.60;99.90
2999;DHT22;1509;51.964;7.628;2024-01-25T08:37:16;5.70;99.90
2999;DHT22;1509;51.964;7.628;2024-01-25T08:39:42;5.60;99.90
2999;DHT22;1509;51.964;7.628;2024-01-25T08:42:08;5.60;99.90
2999;DHT22;1509;51.964;7.628;2024-01-25T08:44:34;5.60;99.90
2999;DHT22;1509;51.964;7.628;2024-01-25T08:47:00;5.70;99.90
2999;DHT22;1509;51.964;7.628;2024-01-25T08:49:25;5.60;99.90
2999;DHT22;1509;51.964;7.628;2024-01-25T08:51:51;5.70;99.90
2999;DHT22;1509;51.964;7.628;2024-01-25T08:54:16;5.70;99.90
2999;DHT22;1509;51.964;7.628;2024-01-25T08:56:42;5.70;99.90
2999;DHT22;1509;51.964;7.628;2024-01-25T08:59:08;5.60;99.90
2999;DHT22;1509;51.964;7.628;2024-01-25T09:01:33;5.70;99.90
2999;DHT22;1509;51.964;7.628;2024-01-25T09:03:59;5.80;99.90
2999;DHT22;1509;51.964;7.628;2024-01-25T09:06:29;5.80;99.90
2999;DHT22;1509;51.964;7.628;2024-01-25T09:08:55;5.80;99.90
2999;DHT22;1509;51.964;7.628;2024-01-25T09:11:21;5.80;99.90
2999;DHT22;1509;51.964;7.628;2024-01-25T09:13:46;6.00;99.90
2999;DHT22;1509;51.964;7.628;2024-01-25T09:16:13;5.80;99.90
2999;DHT22;1509;51.964;7.628;2024-01-25T09:18:39;5.90;99.90
2999;DHT22;1509;51.964;7.628;2024-01-25T09:21:05;5.90;99.90
2999;DHT22;1509;51.964;7.628;2024-01-25T09:23:30;5.90;99.90
2999;DHT22;1509;51.964;7.628;2024-01-25T09:25:56;6.00;99.90
2999;DHT22;1509;51.964;7.628;2024-01-25T09:28:22;6.10;99.90
2999;DHT22;1509;51.964;7.628;2024-01-25T09:30:47;6.20;99.90
2999;DHT22;1509;51.964;7.628;2024-01-25T09:33:14;6.30;99.90
2999;DHT22;1509;51.964;7.628;2024-01-25T09:35:39;6.30;99.90
2999;DHT22;1509;51.964;7.628;2024-01-25T09:38:05;6.40;99.90
2999;DHT22;1509;51.964;7.628;2024-01-25T09:40:31;6.40;99.90
2999;DHT22;1509;51.964;7.628;2024-01-25T09:42:58;6.50;99.90
2999;DHT22;1509;51.964;7.628;2024-01-25T09:45:24;6.60;99.90
2999;DHT22;1509;51.964;7.628;2024-01-25T09:47:50;7.00;99.90
2999;DHT22;1509;51.964;7.628;2024-01-25T09:50:15;6.80;99.90
2999;DHT22;1509;51.964;7.628;2024-01-25T09:52:44;6.90;99.90
2999;DHT22;1509;51.964;7.628;2024-01-25T09:55:12;7.00;99.90
2999;DHT22;1509;51.964;7.628;2024-01-25T09:57:41;7.10;99.90
2999;DHT22;1509;51.964;7.628;2024-01-25T10:00:09;7.10;99.90
2999;DHT22;1509;51.964;7.628;2024-01-25T10:02:37;7.10;99.90
2999;DHT22;1509;51.964;7.628;2024-01-25T10:05:03;7.10;99.90
2999;DHT22;1509;51.964;7.628;2024-01-25T10:10:02;7.10;99.90
2999;DHT22;1509;51.964;7.628;2024-01-25T10:12:30;7.10;99.90
2999;DHT22;1509;51.964;7.628;2024-01-25T10:14:56;7.20;99.90
2999;DHT22;1509;51.964;7.628;2024-01-25T10:17:22;7.20;99.90
2999;DHT22;1509;51.964;7.628;2024-01-25T10:19:47;7.10;99.90
2999;DHT22;1509;51.964;7.628;2024-01-25T10:22:14;7.20;99.90
2999;DHT22;1509;51.964;7.628;2024-01-25T10:24:40;7.20;99.90
2999;DHT22;1509;51.964;7.628;2024-01-25T10:27:07;7.30;99.90
2999;DHT22;1509;51.964;7.628;2024-01-25T10:29:34;7.30;99.90
2999;DHT22;1509;51.964;7.628;2024-01-25T10:32:02;7.20;99.90
2999;DHT22;1509;51.964;7.628;2024-01-25T10:34:29;7.30;99.90
2999;DHT22;1509;51.964;7.628;2024-01-25T10:36:55;7.30;99.90
2999;DHT22;1509;51.964;7.628;2024-01-25T10:39:24;7.50;99.90
2999;DHT22;1509;51.964;7.628;2024-01-25T10:41:50;7.90;99.90
2999;DHT22;1509;51.964;7.628;2024-01-25T10:44:19;8.50;99.90
2999;DHT22;1509;51.964;7.628;2024-01-25T10:46:48;8.20;99.90
2999;DHT22;1509;51.964;7.628;2024-01-25T10:49:14;8.20;99.90
2999;DHT22;1509;51.964;7.628;2024-01-25T10:51:41;8.40;99.90
2999;DHT22;1509;51.964;7.628;2024-01-25T10:54:11;8.40;99.90
2999;DHT22;1509;51.964;7.628;2024-01-25T10:56:44;8.60;99.90
2999;DHT22;1509;51.964;7.628;2024-01-25T10:59:11;8.60;99.90
2999;DHT22;1509;51.964;7.628;2024-01-25T11:01:37;8.90;99.90
2999;DHT22;1509;51.964;7.628;2024-01-25T11:04:11;9.00;99.90
2999;DHT22;1509;51.964;7.628;2024-01-25T11:06:37;8.70;99.90
2999;DHT22;1509;51.964;7.628;2024-01-25T11:09:06;8.70;99.90
2999;DHT22;1509;51.964;7.628;2024-01-25T11:11:32;8.60;99.90
2999;DHT22;1509;51.964;7.628;2024-01-25T11:13:59;9.00;99.90
2999;DHT22;1509;51.964;7.628;2024-01-25T11:16:33;9.50;99.90
2999;DHT22;1509;51.964;7.628;2024-01-25T11:19:00;10.20;99.90
2999;DHT22;1509;51.964;7.628;2024-01-25T11:24:14;10.60;99.90
2999;DHT22;1509;51.964;7.628;2024-01-25T11:26:46;11.20;99.90
2999;DHT22;1509;51.964;7.628;2024-01-25T11:29:18;11.20;99.90
2999;DHT22;1509;51.964;7.628;2024-01-25T11:31:46;10.80;99.90
2999;DHT22;1509;51.964;7.628;2024-01-25T11:34:13;11.00;99.90
2999;DHT22;1509;51.964;7.628;2024-01-25T11:36:39;10.90;99.90
2999;DHT22;1509;51.964;7.628;2024-01-25T11:39:05;10.40;99.90
2999;DHT22;1509;51.964;7.628;2024-01-25T11:41:31;10.80;99.90
2999;DHT22;1509;51.964;7.628;2024-01-25T11:44:01;11.20;99.90
2999;DHT22;1509;51.964;7.628;2024-01-25T11:46:28;11.70;99.90
2999;DHT22;1509;51.964;7.628;2024-01-25T11:48:53;11.30;99.90
2999;DHT22;1509;51.964;7.628;2024-01-25T11:51:19;11.10;99.90
2999;DHT22;1509;51.964;7.628;2024-01-25T11:53:44;10.60;99.90
2999;DHT22;1509;51.964;7.628;2024-01-25T11:56:18;9.90;99.90
2999;DHT22;1509;51.964;7.628;2024-01-25T11:58:45;9.60;99.90
2999;DHT22;1509;51.964;7.628;2024-01-25T12:01:12;9.60;99.90
2999;DHT22;1509;51.964;7.628;2024-01-25T12:03:38;9.20;99.90
2999;DHT22;1509;51.964;7.628;2024-01-25T12:06:04;9.20;99.90
2999;DHT22;1509;51.964;7.628;2024-01-25T12:08:32;9.30;99.90
2999;DHT22;1509;51.964;7.628;2024-01-25T12:11:05;9.80;99.90
2999;DHT22;1509;51.964;7.628;2024-01-25T12:13:35;10.40;99.90
2999;DHT22;1509;51.964;7.628;2024-01-25T12:16:02;10.20;99.90
2999;DHT22;1509;51.964;7.628;2024-01-25T12:18:29;9.90;99.90
2999;DHT22;1509;51.964;7.628;2024-01-25T12:20:58;10.00;99.90
2999;DHT22;1509;51.964;7.628;2024-01-25T12:23:30;10.00;99.90
2999;DHT22;1509;51.964;7.628;2024-01-25T12:25:59;9.90;99.90
2999;DHT22;1509;51.964;7.628;2024-01-25T12:28:27;9.60;99.90
2999;DHT22;1509;51.964;7.628;2024-01-25T12:30:56;9.50;99.90
2999;DHT22;1509;51.964;7.628;2024-01-25T12:33:22;9.50;99.90
2999;DHT22;1509;51.964;7.628;2024-01-25T12:35:48;9.30;99.90
2999;DHT22;1509;51.964;7.628;2024-01-25T12:38:13;9.20;99.90
2999;DHT22;1509;51.964;7.628;2024-01-25T12:40:41;9.00;99.90
2999;DHT22;1509;51.964;7.628;2024-01-25T12:43:07;9.20;99.90
2999;DHT22;1509;51.964;7.628;2024-01-25T12:45:32;9.20;99.90
2999;DHT22;1509;51.964;7.628;2024-01-25T12:47:58;9.20;99.90
2999;DHT22;1509;51.964;7.628;2024-01-25T12:50:24;9.20;99.90
2999;DHT22;1509;51.964;7.628;2024-01-25T12:52:49;9.10;99.90
2999;DHT22;1509;51.964;7.628;2024-01-25T12:55:16;9.10;99.90
2999;DHT22;1509;51.964;7.628;2024-01-25T12:57:42;9.00;99.90
2999;DHT22;1509;51.964;7.628;2024-01-25T13:00:08;8.90;99.90
2999;DHT22;1509;51.964;7.628;2024-01-25T13:02:33;8.80;99.90
2999;DHT22;1509;51.964;7.628;2024-01-25T13:04:59;8.90;99.90
2999;DHT22;1509;51.964;7.628;2024-01-25T13:07:25;9.10;99.90
2999;DHT22;1509;51.964;7.628;2024-01-25T13:09:51;9.80;99.90
2999;DHT22;1509;51.964;7.628;2024-01-25T13:12:16;10.70;99.90
2999;DHT22;1509;51.964;7.628;2024-01-25T13:14:45;11.10;99.90
2999;DHT22;1509;51.964;7.628;2024-01-25T13:17:10;10.90;99.90
2999;DHT22;1509;51.964;7.628;2024-01-25T13:19:36;10.80;99.90
2999;DHT22;1509;51.964;7.628;2024-01-25T13:22:02;10.30;99.90
2999;DHT22;1509;51.964;7.628;2024-01-25T13:24:27;10.20;99.90
2999;DHT22;1509;51.964;7.628;2024-01-25T13:26:53;10.10;99.90
2999;DHT22;1509;51.964;7.628;2024-01-25T13:29:19;10.20;99.90
2999;DHT22;1509;51.964;7.628;2024-01-25T13:31:44;10.40;99.90
2999;DHT22;1509;51.964;7.628;2024-01-25T13:34:10;10.60;99.90
2999;DHT22;1509;51.964;7.628;2024-01-25T13:36:35;11.00;99.90
2999;DHT22;1509;51.964;7.628;2024-01-25T13:39:01;10.90;99.90
2999;DHT22;1509;51.964;7.628;2024-01-25T13:41:27;11.00;99.90
2999;DHT22;1509;51.964;7.628;2024-01-25T13:43:52;11.00;99.90
2999;DHT22;1509;51.964;7.628;2024-01-25T13:46:18;11.10;99.90
2999;DHT22;1509;51.964;7.628;2024-01-25T13:48:44;10.90;99.90
2999;DHT22;1509;51.964;7.628;2024-01-25T13:51:11;10.90;99.90
2999;DHT22;1509;51.964;7.628;2024-01-25T13:53:37;11.00;99.90
2999;DHT22;1509;51.964;7.628;2024-01-25T13:56:03;11.20;99.90
2999;DHT22;1509;51.964;7.628;2024-01-25T13:58:29;10.50;99.90
2999;DHT22;1509;51.964;7.628;2024-01-25T14:00:54;10.20;99.90
2999;DHT22;1509;51.964;7.628;2024-01-25T14:03:20;10.00;99.90
2999;DHT22;1509;51.964;7.628;2024-01-25T14:05:45;9.70;99.90
2999;DHT22;1509;51.964;7.628;2024-01-25T14:08:11;9.40;99.90
2999;DHT22;1509;51.964;7.628;2024-01-25T14:10:37;9.30;99.90
2999;DHT22;1509;51.964;7.628;2024-01-25T14:13:03;9.20;99.90
2999;DHT22;1509;51.964;7.628;2024-01-25T14:15:29;9.00;99.90
2999;DHT22;1509;51.964;7.628;2024-01-25T14:17:57;9.30;99.90
2999;DHT22;1509;51.964;7.628;2024-01-25T14:20:22;9.00;99.90
2999;DHT22;1509;51.964;7.628;2024-01-25T14:22:49;9.00;99.90
2999;DHT22;1509;51.964;7.628;2024-01-25T14:25:14;9.10;99.90
2999;DHT22;1509;51.964;7.628;2024-01-25T14:27:40;9.10;99.90
2999;DHT22;1509;51.964;7.628;2024-01-25T14:30:06;9.00;99.90
2999;DHT22;1509;51.964;7.628;2024-01-25T14:32:32;8.90;99.90
2999;DHT22;1509;51.964;7.628;2024-01-25T14:34:58;8.90;99.90
2999;DHT22;1509;51.964;7.628;2024-01-25T14:37:24;8.90;99.90
2999;DHT22;1509;51.964;7.628;2024-01-25T14:39:49;8.80;99.90
2999;DHT22;1509;51.964;7.628;2024-01-25T14:42:15;8.70;99.90
2999;DHT22;1509;51.964;7.628;2024-01-25T14:44:43;8.80;99.90
2999;DHT22;1509;51.964;7.628;2024-01-25T14:47:09;8.90;99.90
2999;DHT22;1509;51.964;7.628;2024-01-25T14:49:35;8.80;99.90
2999;DHT22;1509;51.964;7.628;2024-01-25T14:52:00;8.90;99.90
2999;DHT22;1509;51.964;7.628;2024-01-25T14:54:26;8.90;99.90
2999;DHT22;1509;51.964;7.628;2024-01-25T14:56:52;8.90;99.90
2999;DHT22;1509;51.964;7.628;2024-01-25T14:59:17;8.90;99.90
2999;DHT22;1509;51.964;7.628;2024-01-25T15:01:46;8.90;99.90
2999;DHT22;1509;51.964;7.628;2024-01-25T15:04:12;8.80;99.90
2999;DHT22;1509;51.964;7.628;2024-01-25T15:06:37;8.80;99.90
2999;DHT22;1509;51.964;7.628;2024-01-25T15:09:03;8.80;99.90
2999;DHT22;1509;51.964;7.628;2024-01-25T15:11:28;8.90;99.90
2999;DHT22;1509;51.964;7.628;2024-01-25T15:13:54;8.90;99.90
2999;DHT22;1509;51.964;7.628;2024-01-25T15:16:20;8.80;99.90
2999;DHT22;1509;51.964;7.628;2024-01-25T15:18:45;8.80;99.90
2999;DHT22;1509;51.964;7.628;2024-01-25T15:21:11;8.80;99.90
2999;DHT22;1509;51.964;7.628;2024-01-25T15:23:36;8.80;99.90
2999;DHT22;1509;51.964;7.628;2024-01-25T15:26:06;8.70;99.90
2999;DHT22;1509;51.964;7.628;2024-01-25T15:28:32;8.60;99.90
2999;DHT22;1509;51.964;7.628;2024-01-25T15:31:02;8.70;99.90
2999;DHT22;1509;51.964;7.628;2024-01-25T15:33:28;8.90;99.90
2999;DHT22;1509;51.964;7.628;2024-01-25T15:35:54;8.60;99.90
2999;DHT22;1509;51.964;7.628;2024-01-25T15:38:19;8.60;99.90
2999;DHT22;1509;51.964;7.628;2024-01-25T15:40:45;8.70;99.90
2999;DHT22;1509;51.964;7.628;2024-01-25T15:43:11;8.70;99.90
2999;DHT22;1509;51.964;7.628;2024-01-25T15:45:36;8.60;99.90
2999;DHT22;1509;51.964;7.628;2024-01-25T15:48:02;8.60;99.90
2999;DHT22;1509;51.964;7.628;2024-01-25T15:50:28;8.60;99.90
2999;DHT22;1509;51.964;7.628;2024-01-25T15:52:54;8.60;99.90
2999;DHT22;1509;51.964;7.628;2024-01-25T15:55:21;8.60;99.90
2999;DHT22;1509;51.964;7.628;2024-01-25T15:57:49;8.30;99.90
2999;DHT22;1509;51.964;7.628;2024-01-25T16:00:15;8.60;99.90
2999;DHT22;1509;51.964;7.628;2024-01-25T16:02:41;8.60;99.90
2999;DHT22;1509;51.964;7.628;2024-01-25T16:05:07;8.70;99.90
2999;DHT22;1509;51.964;7.628;2024-01-25T16:07:33;8.60;99.90
2999;DHT22;1509;51.964;7.628;2024-01-25T16:09:58;8.40;99.90
2999;DHT22;1509;51.964;7.628;2024-01-25T16:12:24;8.40;99.90
2999;DHT22;1509;51.964;7.628;2024-01-25T16:14:50;8.50;99.90